createdAt,value
2022-10-07T00:00:05.782Z,87.24
2022-10-07T00:01:05.813Z,87.14
2022-10-07T00:02:05.849Z,87.14
2022-10-07T00:03:05.981Z,87.24
2022-10-07T00:04:05.736Z,87.24
2022-10-07T00:05:05.737Z,87.24
2022-10-07T00:06:05.714Z,87.34
2022-10-07T00:07:05.718Z,87.34
2022-10-07T00:08:05.693Z,87.24
2022-10-07T00:09:06.008Z,87.34
2022-10-07T00:10:05.676Z,87.34
2022-10-07T00:11:05.656Z,87.34
2022-10-07T00:12:05.644Z,87.34
2022-10-07T00:13:05.647Z,87.34
2022-10-07T00:14:05.896Z,87.45
2022-10-07T00:15:05.927Z,87.45
2022-10-07T00:16:05.610Z,87.55
2022-10-07T00:17:05.632Z,87.45
2022-10-07T00:18:05.588Z,87.55
2022-10-07T00:19:05.555Z,87.49
2022-10-07T00:20:05.545Z,87.45
2022-10-07T00:21:05.799Z,87.49
2022-10-07T00:22:05.524Z,87.38
2022-10-07T00:23:05.530Z,87.38
2022-10-07T00:24:05.510Z,87.49
2022-10-07T00:25:05.487Z,87.59
2022-10-07T00:26:05.787Z,87.59
2022-10-07T00:27:05.480Z,87.70
2022-10-07T00:28:05.517Z,87.70
2022-10-07T00:29:05.461Z,87.70
2022-10-07T00:30:05.442Z,87.70
2022-10-07T00:31:05.461Z,87.70
2022-10-07T00:32:05.731Z,87.70
2022-10-07T00:33:05.417Z,87.70
2022-10-07T00:34:05.380Z,87.79
2022-10-07T00:35:05.402Z,87.79
2022-10-07T00:36:05.380Z,87.79
2022-10-07T00:37:05.359Z,87.70
2022-10-07T00:38:05.341Z,87.79
2022-10-07T00:39:05.344Z,87.79
2022-10-07T00:40:05.339Z,87.79
2022-10-07T00:41:05.319Z,87.79
2022-10-07T00:42:05.295Z,87.79
2022-10-07T00:43:05.563Z,87.79
2022-10-07T00:44:05.273Z,87.90
2022-10-07T00:45:05.273Z,87.90
2022-10-07T00:46:05.334Z,87.90
2022-10-07T00:47:05.246Z,87.90
2022-10-07T00:48:05.561Z,88.04
2022-10-07T00:49:05.226Z,88.14
2022-10-07T00:50:05.216Z,88.14
2022-10-07T00:51:05.196Z,88.14
2022-10-07T00:52:05.492Z,88.14
2022-10-07T00:53:05.186Z,88.14
2022-10-07T00:54:05.168Z,88.24
2022-10-07T00:55:05.143Z,88.24
2022-10-07T00:56:05.124Z,88.24
2022-10-07T00:57:05.135Z,88.14
2022-10-07T00:58:05.354Z,88.24
2022-10-07T00:59:05.108Z,88.35
2022-10-07T01:00:05.122Z,88.35
2022-10-07T01:01:05.126Z,88.56
2022-10-07T01:02:05.394Z,88.56
2022-10-07T01:03:05.083Z,88.56
2022-10-07T01:04:05.047Z,88.56
2022-10-07T01:05:05.053Z,88.56
2022-10-07T01:06:05.032Z,88.45
2022-10-07T01:07:05.008Z,88.45
2022-10-07T01:08:05.269Z,88.45
2022-10-07T01:09:04.992Z,88.56
2022-10-07T01:10:04.967Z,88.45
2022-10-07T01:11:04.969Z,88.56
2022-10-07T01:12:04.958Z,88.56
2022-10-07T01:13:05.273Z,88.45
2022-10-07T01:14:04.918Z,88.56
2022-10-07T01:15:04.909Z,88.45
2022-10-07T01:16:04.901Z,88.45
2022-10-07T01:17:05.236Z,88.56
2022-10-07T01:18:05.093Z,88.56
2022-10-07T01:19:04.875Z,88.56
2022-10-07T01:20:04.929Z,88.56
2022-10-07T01:21:04.863Z,88.45
2022-10-07T01:22:05.057Z,88.45
2022-10-07T01:23:04.829Z,88.45
2022-10-07T01:24:04.799Z,88.56
2022-10-07T01:25:04.799Z,88.56
2022-10-07T01:26:04.793Z,88.56
2022-10-07T01:27:05.032Z,88.56
2022-10-07T01:28:04.837Z,88.45
2022-10-07T01:29:05.063Z,88.35
2022-10-07T01:30:04.745Z,88.45
2022-10-07T01:31:05.033Z,88.45
2022-10-07T01:32:04.709Z,88.45
2022-10-07T01:33:04.702Z,88.45
2022-10-07T01:34:04.901Z,88.45
2022-10-07T01:35:04.686Z,88.45
2022-10-07T01:36:04.663Z,88.45
2022-10-07T01:37:04.654Z,88.35
2022-10-07T01:38:04.656Z,88.35
2022-10-07T01:39:04.645Z,88.24
2022-10-07T01:40:04.951Z,88.35
2022-10-07T01:41:04.622Z,88.35
2022-10-07T01:42:04.874Z,88.35
2022-10-07T01:43:04.599Z,88.24
2022-10-07T01:44:04.571Z,88.35
2022-10-07T01:45:04.581Z,88.35
2022-10-07T01:46:04.605Z,88.35
2022-10-07T01:47:04.849Z,88.45
2022-10-07T01:48:04.524Z,88.35
2022-10-07T01:49:04.728Z,88.24
2022-10-07T01:50:04.496Z,88.14
2022-10-07T01:51:04.497Z,88.14
2022-10-07T01:52:04.493Z,88.14
2022-10-07T01:53:04.776Z,88.14
2022-10-07T01:54:04.457Z,88.29
2022-10-07T01:55:04.436Z,88.29
2022-10-07T01:56:04.428Z,88.29
2022-10-07T01:57:04.431Z,88.29
2022-10-07T01:58:04.651Z,88.39
2022-10-07T01:59:04.400Z,88.49
2022-10-07T02:00:04.689Z,88.70
2022-10-07T02:01:04.426Z,88.70
2022-10-07T02:02:04.362Z,88.70
2022-10-07T02:03:04.370Z,88.80
2022-10-07T02:04:04.401Z,88.95
2022-10-07T02:05:04.542Z,89.15
2022-10-07T02:06:04.332Z,89.25
2022-10-07T02:07:04.309Z,89.25
2022-10-07T02:08:04.302Z,89.46
2022-10-07T02:09:04.489Z,89.46
2022-10-07T02:10:04.524Z,89.46
2022-10-07T02:11:04.273Z,89.56
2022-10-07T02:12:04.252Z,89.46
2022-10-07T02:13:04.234Z,89.46
2022-10-07T02:14:04.551Z,89.46
2022-10-07T02:15:04.526Z,89.36
2022-10-07T02:16:04.281Z,89.25
2022-10-07T02:17:04.193Z,89.25
2022-10-07T02:18:04.172Z,89.25
2022-10-07T02:19:04.184Z,89.15
2022-10-07T02:20:04.185Z,89.25
2022-10-07T02:21:04.392Z,89.25
2022-10-07T02:22:04.457Z,89.25
2022-10-07T02:23:04.135Z,89.25
2022-10-07T02:24:04.103Z,89.25
2022-10-07T02:25:04.130Z,89.15
2022-10-07T02:26:04.096Z,89.15
2022-10-07T02:27:04.087Z,89.15
2022-10-07T02:28:04.132Z,89.15
2022-10-07T02:29:04.053Z,89.15
2022-10-07T02:30:04.307Z,89.25
2022-10-07T02:31:04.081Z,89.25
2022-10-07T02:32:04.037Z,89.36
2022-10-07T02:33:04.327Z,89.25
2022-10-07T02:34:04.008Z,89.36
2022-10-07T02:35:04.215Z,89.46
2022-10-07T02:36:03.978Z,89.46
2022-10-07T02:37:04.280Z,89.36
2022-10-07T02:38:03.960Z,89.46
2022-10-07T02:39:03.948Z,89.46
2022-10-07T02:40:07.096Z,89.46
2022-10-07T02:41:04.926Z,89.36
2022-10-07T02:42:04.218Z,89.36
2022-10-07T02:43:03.888Z,89.25
2022-10-07T02:44:03.888Z,89.25
2022-10-07T02:45:04.126Z,89.25
2022-10-07T02:46:03.874Z,89.25
2022-10-07T02:47:03.862Z,89.15
2022-10-07T02:48:03.827Z,89.15
2022-10-07T02:49:04.072Z,89.15
2022-10-07T02:50:03.822Z,89.15
2022-10-07T02:51:03.809Z,89.25
2022-10-07T02:52:03.791Z,89.25
2022-10-07T02:53:03.768Z,89.25
2022-10-07T02:54:04.044Z,89.36
2022-10-07T02:55:03.767Z,89.36
2022-10-07T02:56:03.752Z,89.46
2022-10-07T02:57:03.729Z,89.46
2022-10-07T02:58:03.998Z,89.46
2022-10-07T02:59:03.701Z,89.46
2022-10-07T03:00:08.576Z,89.60
2022-10-07T03:01:04.694Z,89.56
2022-10-07T03:02:03.766Z,89.70
2022-10-07T03:03:03.661Z,89.60
2022-10-07T03:04:03.735Z,89.60
2022-10-07T03:05:03.940Z,89.70
2022-10-07T03:06:03.620Z,89.70
2022-10-07T03:07:03.610Z,89.81
2022-10-07T03:08:03.592Z,89.81
2022-10-07T03:09:03.603Z,89.81
2022-10-07T03:10:03.823Z,89.81
2022-10-07T03:11:03.576Z,89.81
2022-10-07T03:12:03.626Z,89.91
2022-10-07T03:13:03.553Z,90.01
2022-10-07T03:14:03.523Z,90.01
2022-10-07T03:15:03.536Z,90.12
2022-10-07T03:16:03.561Z,90.12
2022-10-07T03:17:03.492Z,90.22
2022-10-07T03:18:03.489Z,90.22
2022-10-07T03:19:03.492Z,90.32
2022-10-07T03:20:03.455Z,90.32
2022-10-07T03:21:03.765Z,90.32
2022-10-07T03:22:03.665Z,90.42
2022-10-07T03:23:03.422Z,90.42
2022-10-07T03:24:03.705Z,90.47
2022-10-07T03:25:03.409Z,90.47
2022-10-07T03:26:03.709Z,90.57
2022-10-07T03:27:03.389Z,90.67
2022-10-07T03:28:03.701Z,90.67
2022-10-07T03:29:03.346Z,90.67
2022-10-07T03:30:03.348Z,90.57
2022-10-07T03:31:03.391Z,90.53
2022-10-07T03:32:03.329Z,90.57
2022-10-07T03:33:03.640Z,90.57
2022-10-07T03:34:03.289Z,90.42
2022-10-07T03:35:03.278Z,90.53
2022-10-07T03:36:03.280Z,90.53
2022-10-07T03:37:03.271Z,90.53
2022-10-07T03:38:03.510Z,90.53
2022-10-07T03:39:03.563Z,90.53
2022-10-07T03:40:03.217Z,90.42
2022-10-07T03:41:03.221Z,90.42
2022-10-07T03:42:03.482Z,90.32
2022-10-07T03:43:03.188Z,90.12
2022-10-07T03:44:03.168Z,90.12
2022-10-07T03:45:03.182Z,90.01
2022-10-07T03:46:03.243Z,90.12
2022-10-07T03:47:05.711Z,90.12
2022-10-07T03:48:04.146Z,90.01
2022-10-07T03:49:03.141Z,89.91
2022-10-07T03:50:03.337Z,89.91
2022-10-07T03:51:03.090Z,89.76
2022-10-07T03:52:03.080Z,89.66
2022-10-07T03:53:03.406Z,89.56
2022-10-07T03:54:03.061Z,89.56
2022-10-07T03:55:03.054Z,89.56
2022-10-07T03:56:03.058Z,89.46
2022-10-07T03:57:03.021Z,89.36
2022-10-07T03:58:03.011Z,89.40
2022-10-07T03:59:03.233Z,89.40
2022-10-07T04:00:03.266Z,89.50
2022-10-07T04:01:02.972Z,89.50
2022-10-07T04:02:03.033Z,89.60
2022-10-07T04:03:03.045Z,89.60
2022-10-07T04:04:02.933Z,89.60
2022-10-07T04:05:03.234Z,89.60
2022-10-07T04:06:02.928Z,89.60
2022-10-07T04:07:02.916Z,89.56
2022-10-07T04:08:02.903Z,89.46
2022-10-07T04:09:02.885Z,89.46
2022-10-07T04:10:03.174Z,89.46
2022-10-07T04:11:02.854Z,89.25
2022-10-07T04:12:02.845Z,89.25
2022-10-07T04:13:02.834Z,89.15
2022-10-07T04:14:03.147Z,89.04
2022-10-07T04:15:02.830Z,88.95
2022-10-07T04:16:02.864Z,88.95
2022-10-07T04:17:02.798Z,88.84
2022-10-07T04:18:02.766Z,88.74
2022-10-07T04:19:02.987Z,88.74
2022-10-07T04:20:02.746Z,88.53
2022-10-07T04:21:02.740Z,88.43
2022-10-07T04:22:08.236Z,88.39
2022-10-07T04:23:04.026Z,88.29
2022-10-07T04:24:03.006Z,88.29
2022-10-07T04:25:02.688Z,88.18
2022-10-07T04:26:02.676Z,88.18
2022-10-07T04:27:02.681Z,88.18
2022-10-07T04:28:02.995Z,88.18
2022-10-07T04:29:02.661Z,88.08
2022-10-07T04:30:02.887Z,88.08
2022-10-07T04:31:02.629Z,88.08
2022-10-07T04:32:02.614Z,87.98
2022-10-07T04:33:02.853Z,87.88
2022-10-07T04:34:02.578Z,87.88
2022-10-07T04:35:02.591Z,87.77
2022-10-07T04:36:02.559Z,87.77
2022-10-07T04:37:02.562Z,87.77
2022-10-07T04:38:02.831Z,87.67
2022-10-07T04:39:02.529Z,87.67
2022-10-07T04:40:02.523Z,87.67
2022-10-07T04:41:02.524Z,87.57
2022-10-07T04:42:02.490Z,87.46
2022-10-07T04:43:02.501Z,87.57
2022-10-07T04:44:02.504Z,87.46
2022-10-07T04:45:02.760Z,87.37
2022-10-07T04:46:02.442Z,87.26
2022-10-07T04:47:02.551Z,87.37
2022-10-07T04:48:02.730Z,87.37
2022-10-07T04:49:02.424Z,87.46
2022-10-07T04:50:02.391Z,87.46
2022-10-07T04:51:02.415Z,87.57
2022-10-07T04:52:02.386Z,87.57
2022-10-07T04:53:02.380Z,87.57
2022-10-07T04:54:02.682Z,87.57
2022-10-07T04:55:02.342Z,87.46
2022-10-07T04:56:02.323Z,87.46
2022-10-07T04:57:02.595Z,87.46
2022-10-07T04:58:02.303Z,87.46
2022-10-07T04:59:02.317Z,87.26
2022-10-07T05:00:02.322Z,87.16
2022-10-07T05:01:02.336Z,87.26
2022-10-07T05:02:02.317Z,87.26
2022-10-07T05:03:02.258Z,87.26
2022-10-07T05:04:02.535Z,87.16
2022-10-07T05:05:02.238Z,87.16
2022-10-07T05:06:05.369Z,87.16
2022-10-07T05:07:02.527Z,87.16
2022-10-07T05:08:02.199Z,87.16
2022-10-07T05:09:02.190Z,87.16
2022-10-07T05:10:02.171Z,87.16
2022-10-07T05:11:02.168Z,87.16
2022-10-07T05:12:02.465Z,87.05
2022-10-07T05:13:02.125Z,87.05
2022-10-07T05:14:02.141Z,87.05
2022-10-07T05:15:02.104Z,87.05
2022-10-07T05:16:02.170Z,87.05
2022-10-07T05:17:02.096Z,87.16
2022-10-07T05:18:02.082Z,87.16
2022-10-07T05:19:02.079Z,87.05
2022-10-07T05:20:02.063Z,87.05
2022-10-07T05:21:02.046Z,86.95
2022-10-07T05:22:02.039Z,86.95
2022-10-07T05:23:02.007Z,86.75
2022-10-07T05:24:02.037Z,86.65
2022-10-07T05:25:01.979Z,86.65
2022-10-07T05:26:02.026Z,86.65
2022-10-07T05:27:01.972Z,86.54
2022-10-07T05:28:02.013Z,86.44
2022-10-07T05:29:01.961Z,86.54
2022-10-07T05:30:01.928Z,86.44
2022-10-07T05:31:01.937Z,86.33
2022-10-07T05:32:05.010Z,86.33
2022-10-07T05:33:02.213Z,86.30
2022-10-07T05:34:01.893Z,86.09
2022-10-07T05:35:01.874Z,86.09
2022-10-07T05:36:01.861Z,85.99
2022-10-07T05:37:01.857Z,85.99
2022-10-07T05:38:02.148Z,85.89
2022-10-07T05:39:01.821Z,85.78
2022-10-07T05:40:01.810Z,85.78
2022-10-07T05:41:01.815Z,85.78
2022-10-07T05:42:01.910Z,85.78
2022-10-07T05:43:01.981Z,85.68
2022-10-07T05:44:01.761Z,85.78
2022-10-07T05:45:01.742Z,85.78
2022-10-07T05:46:01.884Z,85.89
2022-10-07T05:47:01.735Z,85.89
2022-10-07T05:48:01.913Z,85.89
2022-10-07T05:49:01.722Z,85.89
2022-10-07T05:50:01.693Z,85.89
2022-10-07T05:51:01.674Z,85.89
2022-10-07T05:52:01.663Z,85.78
2022-10-07T05:53:01.853Z,85.78
2022-10-07T05:54:01.663Z,85.78
2022-10-07T05:55:01.649Z,85.78
2022-10-07T05:56:01.639Z,85.78
2022-10-07T05:57:01.764Z,85.78
2022-10-07T05:58:01.595Z,85.68
2022-10-07T05:59:01.606Z,85.58
2022-10-07T06:00:01.604Z,85.58
2022-10-07T06:01:06.034Z,85.58
2022-10-07T06:02:02.648Z,85.58
2022-10-07T06:03:01.832Z,85.58
2022-10-07T06:04:01.541Z,85.47
2022-10-07T06:05:01.515Z,85.38
2022-10-07T06:06:01.641Z,85.38
2022-10-07T06:07:01.551Z,85.38
2022-10-07T06:08:01.807Z,85.38
2022-10-07T06:09:01.468Z,85.27
2022-10-07T06:10:01.457Z,85.27
2022-10-07T06:11:01.459Z,85.27
2022-10-07T06:12:01.451Z,85.38
2022-10-07T06:13:01.695Z,85.38
2022-10-07T06:14:01.409Z,85.47
2022-10-07T06:15:01.395Z,85.47
2022-10-07T06:16:01.388Z,85.47
2022-10-07T06:17:01.426Z,85.47
2022-10-07T06:18:01.678Z,85.47
2022-10-07T06:19:01.357Z,85.47
2022-10-07T06:20:01.352Z,85.47
2022-10-07T06:21:01.329Z,85.47
2022-10-07T06:22:01.335Z,85.47
2022-10-07T06:23:01.510Z,85.38
2022-10-07T06:24:01.309Z,85.38
2022-10-07T06:25:01.290Z,85.38
2022-10-07T06:26:01.269Z,85.27
2022-10-07T06:27:01.260Z,85.27
2022-10-07T06:28:01.518Z,85.17
2022-10-07T06:29:01.261Z,85.17
2022-10-07T06:30:01.234Z,85.03
2022-10-07T06:31:01.283Z,84.92
2022-10-07T06:32:01.232Z,84.92
2022-10-07T06:33:01.182Z,84.92
2022-10-07T06:34:01.180Z,84.82
2022-10-07T06:35:01.176Z,84.72
2022-10-07T06:36:04.480Z,84.61
2022-10-07T06:37:01.141Z,84.61
2022-10-07T06:38:01.132Z,84.61
2022-10-07T06:39:01.312Z,84.61
2022-10-07T06:40:01.115Z,84.47
2022-10-07T06:41:01.112Z,84.47
2022-10-07T06:42:01.176Z,84.37
2022-10-07T06:43:01.083Z,84.17
2022-10-07T06:44:01.114Z,84.06
2022-10-07T06:45:01.054Z,84.06
2022-10-07T06:46:01.089Z,83.96
2022-10-07T06:47:01.037Z,83.96
2022-10-07T06:48:01.014Z,83.72
2022-10-07T06:49:01.039Z,83.72
2022-10-07T06:50:00.986Z,83.61
2022-10-07T06:51:00.973Z,83.51
2022-10-07T06:52:00.972Z,83.51
2022-10-07T06:53:00.968Z,83.41
2022-10-07T06:54:00.979Z,83.31
2022-10-07T06:55:00.925Z,83.27
2022-10-07T06:56:00.925Z,83.17
2022-10-07T06:57:00.917Z,83.06
2022-10-07T06:58:01.202Z,82.96
2022-10-07T06:59:01.219Z,82.96
2022-10-07T07:00:00.880Z,82.96
2022-10-07T07:01:00.954Z,82.76
2022-10-07T07:02:00.926Z,82.65
2022-10-07T07:03:01.050Z,82.51
2022-10-07T07:04:00.838Z,82.41
2022-10-07T07:06:00.807Z,82.31
2022-10-07T07:07:00.822Z,82.10
2022-10-07T07:08:00.802Z,82.07
2022-10-07T07:09:00.796Z,81.96
2022-10-07T07:10:00.781Z,81.96
2022-10-07T07:11:00.769Z,81.86
2022-10-07T07:12:01.061Z,81.76
2022-10-07T07:14:00.702Z,81.21
2022-10-07T07:15:00.703Z,81.31
2022-10-07T07:16:00.988Z,81.31
2022-10-07T07:17:00.770Z,81.10
2022-10-07T07:18:00.671Z,80.90
2022-10-07T07:19:00.671Z,80.87
2022-10-07T07:20:00.941Z,80.66
2022-10-07T07:21:00.621Z,80.66
2022-10-07T07:22:00.614Z,80.66
2022-10-07T07:23:00.592Z,80.46
2022-10-07T07:24:00.605Z,80.35
2022-10-07T07:25:00.588Z,80.42
2022-10-07T07:26:00.880Z,80.42
2022-10-07T07:27:00.603Z,80.42
2022-10-07T07:28:00.614Z,80.32
2022-10-07T07:29:00.544Z,80.32
2022-10-07T07:30:00.547Z,80.18
2022-10-07T07:31:00.564Z,79.97
2022-10-07T07:32:00.508Z,79.77
2022-10-07T07:33:00.748Z,79.77
2022-10-07T07:34:00.464Z,79.46
2022-10-07T07:35:00.464Z,79.46
2022-10-07T07:36:00.459Z,79.32
2022-10-07T07:37:00.706Z,79.22
2022-10-07T07:38:00.739Z,78.91
2022-10-07T07:39:00.438Z,79.02
2022-10-07T07:40:00.418Z,79.02
2022-10-07T07:41:00.384Z,78.77
2022-10-07T07:42:00.375Z,78.77
2022-10-07T07:43:00.674Z,78.77
2022-10-07T07:44:00.356Z,78.67
2022-10-07T07:45:03.517Z,78.47
2022-10-07T07:46:00.373Z,78.33
2022-10-07T07:47:00.332Z,78.12
2022-10-07T07:48:00.306Z,78.12
2022-10-07T07:49:00.312Z,78.02
2022-10-07T07:50:00.587Z,78.02
2022-10-07T07:51:00.516Z,77.98
2022-10-07T07:52:00.271Z,77.89
2022-10-07T07:53:00.447Z,77.58
2022-10-07T07:54:00.250Z,77.58
2022-10-07T07:55:00.529Z,77.37
2022-10-07T07:56:00.230Z,77.34
2022-10-07T07:57:00.461Z,77.34
2022-10-07T07:58:00.210Z,77.14
2022-10-07T07:59:00.401Z,77.24
2022-10-07T08:00:00.164Z,76.93
2022-10-07T08:01:00.509Z,76.90
2022-10-07T08:02:00.456Z,77.00
2022-10-07T08:03:00.131Z,76.79
2022-10-07T08:04:00.421Z,76.79
2022-10-07T08:05:00.132Z,76.76
2022-10-07T08:06:00.106Z,76.56
2022-10-07T08:07:00.082Z,76.04
2022-10-07T08:08:00.097Z,76.15
2022-10-07T08:09:00.087Z,76.04
2022-10-07T08:10:00.271Z,76.11
2022-10-07T08:11:00.045Z,76.11
2022-10-07T08:12:00.036Z,75.70
2022-10-07T08:13:00.018Z,75.77
2022-10-07T08:14:00.313Z,75.77
2022-10-07T08:14:59.982Z,75.77
2022-10-07T08:16:00.010Z,75.87
2022-10-07T08:16:59.976Z,75.77
2022-10-07T08:17:59.977Z,75.43
2022-10-07T08:18:59.960Z,75.43
2022-10-07T08:19:59.926Z,75.43
2022-10-07T08:20:59.905Z,75.02
2022-10-07T08:21:59.906Z,74.99
2022-10-07T08:22:59.888Z,74.68
2022-10-07T08:23:59.934Z,74.79
2022-10-07T08:24:59.887Z,74.79
2022-10-07T08:25:59.846Z,74.79
2022-10-07T08:26:59.857Z,74.99
2022-10-07T08:28:00.222Z,74.75
2022-10-07T08:28:59.831Z,74.34
2022-10-07T08:29:59.807Z,74.65
2022-10-07T08:30:59.819Z,74.65
2022-10-07T08:31:59.988Z,73.13
2022-10-07T08:33:01.505Z,73.19
2022-10-07T08:33:59.761Z,73.09
2022-10-07T08:35:00.074Z,73.09
2022-10-07T08:35:59.752Z,72.85
2022-10-07T08:36:59.722Z,72.55
2022-10-07T08:37:59.709Z,72.75
2022-10-07T08:38:59.763Z,72.55
2022-10-07T08:39:59.692Z,72.01
2022-10-07T08:40:59.691Z,71.40
2022-10-07T08:41:59.932Z,71.09
2022-10-07T08:42:59.665Z,71.40
2022-10-07T08:44:01.104Z,71.30
2022-10-07T08:44:59.632Z,70.59
2022-10-07T08:45:59.955Z,70.79
2022-10-07T08:46:59.629Z,71.06
2022-10-07T08:47:59.616Z,70.76
2022-10-07T08:48:59.778Z,70.35
2022-10-07T08:49:59.573Z,70.35
2022-10-07T08:50:59.576Z,70.56
2022-10-07T08:51:59.551Z,69.92
2022-10-07T08:52:59.838Z,70.01
2022-10-07T08:53:59.547Z,69.71
2022-10-07T08:55:27.195Z,70.01
2022-10-07T08:55:59.497Z,69.20
2022-10-07T08:56:59.494Z,69.51
2022-10-07T08:57:59.688Z,68.60
2022-10-07T08:58:59.500Z,68.80
2022-10-07T08:59:59.474Z,69.20
2022-10-07T09:00:59.467Z,69.41
2022-10-07T09:01:59.463Z,69.41
2022-10-07T09:02:59.819Z,68.66
2022-10-07T09:03:59.420Z,68.77
2022-10-07T09:04:59.406Z,69.07
2022-10-07T09:05:59.385Z,69.07
2022-10-07T09:06:59.390Z,68.77
2022-10-07T09:07:59.595Z,68.73
2022-10-07T09:08:59.374Z,67.82
2022-10-07T09:09:59.338Z,67.82
2022-10-07T09:10:59.342Z,68.13
2022-10-07T09:11:59.641Z,67.42
2022-10-07T09:12:59.315Z,67.52
2022-10-07T09:13:59.312Z,67.22
2022-10-07T09:14:59.280Z,67.52
2022-10-07T09:15:59.287Z,67.32
2022-10-07T09:16:59.501Z,67.11
2022-10-07T09:17:59.249Z,67.32
2022-10-07T09:18:59.261Z,67.52
2022-10-07T09:19:59.238Z,67.52
2022-10-07T09:20:59.498Z,67.69
2022-10-07T09:21:59.202Z,67.89
2022-10-07T09:22:59.433Z,67.79
2022-10-07T09:23:59.173Z,67.76
2022-10-07T09:24:59.175Z,67.55
2022-10-07T09:25:59.153Z,67.46
2022-10-07T09:26:59.151Z,66.75
2022-10-07T09:27:59.145Z,66.75
2022-10-07T09:28:59.116Z,66.35
2022-10-07T09:29:59.105Z,66.75
2022-10-07T09:30:59.463Z,67.05
2022-10-07T09:31:59.096Z,67.05
2022-10-07T09:32:59.079Z,66.72
2022-10-07T09:33:59.076Z,67.02
2022-10-07T09:34:59.036Z,66.21
2022-10-07T09:35:59.337Z,66.52
2022-10-07T09:36:59.039Z,66.41
2022-10-07T09:37:59.042Z,66.11
2022-10-07T09:38:59.031Z,65.70
2022-10-07T09:39:58.999Z,65.50
2022-10-07T09:40:59.199Z,65.98
2022-10-07T09:41:58.981Z,65.88
2022-10-07T09:42:58.961Z,65.98
2022-10-07T09:43:59.150Z,65.17
2022-10-07T09:44:58.920Z,64.97
2022-10-07T09:45:58.948Z,65.50
2022-10-07T09:46:58.903Z,65.37
2022-10-07T09:47:58.903Z,64.76
2022-10-07T09:48:59.225Z,64.87
2022-10-07T09:49:58.882Z,64.76
2022-10-07T09:50:58.874Z,64.67
2022-10-07T09:51:58.841Z,64.36
2022-10-07T09:52:58.843Z,64.33
2022-10-07T09:53:58.836Z,64.13
2022-10-07T09:54:58.824Z,64.03
2022-10-07T09:55:58.793Z,64.13
2022-10-07T09:56:58.797Z,63.93
2022-10-07T09:57:58.787Z,64.20
2022-10-07T09:58:59.088Z,63.70
2022-10-07T09:59:58.767Z,63.49
2022-10-07T10:00:58.747Z,63.70
2022-10-07T10:02:05.488Z,63.79
2022-10-07T10:03:02.668Z,63.29
2022-10-07T10:03:59.986Z,63.79
2022-10-07T10:04:58.701Z,64.00
2022-10-07T10:05:58.887Z,63.59
2022-10-07T10:06:58.665Z,63.39
2022-10-07T10:07:58.660Z,63.79
2022-10-07T10:08:58.660Z,63.79
2022-10-07T10:09:58.629Z,63.49
2022-10-07T10:10:58.959Z,63.79
2022-10-07T10:12:58.597Z,64.00
2022-10-07T10:13:58.589Z,63.79
2022-10-07T10:14:58.583Z,63.79
2022-10-07T10:15:58.655Z,63.59
2022-10-07T10:16:58.550Z,63.79
2022-10-07T10:17:58.552Z,64.30
2022-10-07T10:18:58.553Z,64.10
2022-10-07T10:19:58.851Z,63.90
2022-10-07T10:20:58.501Z,63.39
2022-10-07T10:21:58.521Z,63.59
2022-10-07T10:22:58.471Z,62.99
2022-10-07T10:23:58.489Z,63.19
2022-10-07T10:24:58.452Z,62.99
2022-10-07T10:25:58.762Z,62.88
2022-10-07T10:26:58.440Z,63.49
2022-10-07T10:27:58.465Z,62.68
2022-10-07T10:28:59.066Z,62.25
2022-10-07T10:29:58.406Z,62.15
2022-10-07T10:31:05.480Z,62.55
2022-10-07T10:31:58.389Z,61.44
2022-10-07T10:32:58.356Z,62.25
2022-10-07T10:33:58.375Z,62.65
2022-10-07T10:34:58.344Z,62.55
2022-10-07T10:35:58.364Z,62.45
2022-10-07T10:37:01.007Z,62.88
2022-10-07T10:37:58.337Z,63.46
2022-10-07T10:38:58.540Z,63.76
2022-10-07T10:39:58.281Z,62.35
2022-10-07T10:40:58.524Z,62.05
2022-10-07T10:41:58.272Z,62.65
2022-10-07T10:42:58.570Z,62.85
2022-10-07T10:43:58.257Z,62.63
2022-10-07T10:44:58.220Z,61.92
2022-10-07T10:45:58.472Z,61.92
2022-10-07T10:46:58.227Z,61.92
2022-10-07T10:47:58.213Z,62.63
2022-10-07T10:48:58.180Z,62.22
2022-10-07T10:49:58.245Z,61.61
2022-10-07T10:50:58.404Z,61.41
2022-10-07T10:51:58.165Z,61.61
2022-10-07T10:52:58.130Z,61.61
2022-10-07T10:53:58.142Z,61.49
2022-10-07T10:54:58.103Z,61.01
2022-10-07T10:55:58.448Z,61.39
2022-10-07T10:56:58.098Z,61.49
2022-10-07T10:58:00.522Z,61.59
2022-10-07T10:58:58.087Z,61.79
2022-10-07T10:59:58.309Z,61.69
2022-10-07T11:00:59.854Z,60.68
2022-10-07T11:01:58.054Z,60.48
2022-10-07T11:02:58.048Z,60.98
2022-10-07T11:03:58.020Z,60.88
2022-10-07T11:04:58.201Z,61.36
2022-10-07T11:05:57.998Z,60.55
2022-10-07T11:06:57.980Z,59.84
2022-10-07T11:08:00.507Z,60.25
2022-10-07T11:08:57.981Z,60.12
2022-10-07T11:09:57.951Z,59.92
2022-10-07T11:10:57.932Z,59.42
2022-10-07T11:11:57.910Z,59.82
2022-10-07T11:12:57.932Z,59.24
2022-10-07T11:13:57.906Z,59.84
2022-10-07T11:14:58.054Z,60.35
2022-10-07T11:15:57.926Z,60.65
2022-10-07T11:16:58.074Z,60.35
2022-10-07T11:17:57.855Z,59.95
2022-10-07T11:18:57.831Z,59.84
2022-10-07T11:19:57.835Z,58.84
2022-10-07T11:20:58.016Z,59.04
2022-10-07T11:21:57.802Z,59.14
2022-10-07T11:22:57.794Z,59.44
2022-10-07T11:23:57.772Z,59.55
2022-10-07T11:24:57.779Z,58.64
2022-10-07T11:25:57.987Z,58.84
2022-10-07T11:26:57.734Z,59.04
2022-10-07T11:27:57.844Z,59.01
2022-10-07T11:28:57.747Z,59.04
2022-10-07T11:29:57.717Z,59.01
2022-10-07T11:30:57.958Z,58.61
2022-10-07T11:31:57.702Z,58.14
2022-10-07T11:32:57.665Z,58.74
2022-10-07T11:33:57.672Z,59.14
2022-10-07T11:34:57.660Z,59.24
2022-10-07T11:35:57.861Z,58.94
2022-10-07T11:36:57.632Z,58.74
2022-10-07T11:37:57.631Z,59.04
2022-10-07T11:38:57.610Z,59.37
2022-10-07T11:39:57.602Z,59.07
2022-10-07T11:40:57.912Z,59.07
2022-10-07T11:41:57.569Z,59.17
2022-10-07T11:42:57.553Z,60.08
2022-10-07T11:43:57.541Z,59.57
2022-10-07T11:44:57.529Z,60.17
2022-10-07T11:45:57.743Z,59.75
2022-10-07T11:46:57.577Z,59.44
2022-10-07T11:47:57.491Z,59.75
2022-10-07T11:48:57.495Z,59.84
2022-10-07T11:49:57.485Z,59.04
2022-10-07T11:50:57.662Z,59.44
2022-10-07T11:51:57.463Z,59.77
2022-10-07T11:52:57.444Z,60.05
2022-10-07T11:53:57.435Z,59.64
2022-10-07T11:54:57.705Z,59.64
2022-10-07T11:55:57.416Z,59.55
2022-10-07T11:56:57.384Z,59.75
2022-10-07T11:57:57.374Z,59.84
2022-10-07T11:58:57.398Z,59.55
2022-10-07T11:59:57.369Z,59.34
2022-10-07T12:00:57.358Z,59.55
2022-10-07T12:01:57.715Z,58.91
2022-10-07T12:02:57.377Z,58.71
2022-10-07T12:03:57.320Z,58.41
2022-10-07T12:04:57.295Z,59.01
2022-10-07T12:05:57.287Z,59.22
2022-10-07T12:06:57.601Z,58.61
2022-10-07T12:07:57.257Z,58.61
2022-10-07T12:08:57.249Z,59.04
2022-10-07T12:09:57.240Z,59.64
2022-10-07T12:10:57.232Z,59.44
2022-10-07T12:11:57.529Z,59.64
2022-10-07T12:12:57.201Z,59.64
2022-10-07T12:13:57.210Z,60.15
2022-10-07T12:14:57.173Z,59.24
2022-10-07T12:15:57.214Z,59.04
2022-10-07T12:16:57.181Z,59.07
2022-10-07T12:17:57.155Z,59.67
2022-10-07T12:18:57.122Z,60.17
2022-10-07T12:19:57.112Z,60.08
2022-10-07T12:20:57.423Z,59.77
2022-10-07T12:21:57.114Z,59.84
2022-10-07T12:22:57.094Z,60.35
2022-10-07T12:23:57.074Z,60.32
2022-10-07T12:24:57.285Z,59.72
2022-10-07T12:25:57.055Z,59.42
2022-10-07T12:26:57.034Z,59.31
2022-10-07T12:27:57.257Z,59.42
2022-10-07T12:28:57.029Z,59.92
2022-10-07T12:29:57.005Z,59.82
2022-10-07T12:30:57.007Z,59.72
2022-10-07T12:31:57.059Z,59.31
2022-10-07T12:32:57.166Z,58.84
2022-10-07T12:33:56.955Z,59.55
2022-10-07T12:34:57.210Z,59.95
2022-10-07T12:35:56.937Z,59.84
2022-10-07T12:36:57.246Z,60.05
2022-10-07T12:37:56.909Z,59.95
2022-10-07T12:38:56.928Z,59.95
2022-10-07T12:39:56.902Z,60.05
2022-10-07T12:40:56.874Z,59.84
2022-10-07T12:41:56.860Z,59.64
2022-10-07T12:42:56.850Z,59.01
2022-10-07T12:43:56.863Z,58.91
2022-10-07T12:44:56.830Z,58.91
2022-10-07T12:45:56.861Z,58.51
2022-10-07T12:46:56.803Z,59.01
2022-10-07T12:47:57.087Z,58.71
2022-10-07T12:48:56.772Z,59.11
2022-10-07T12:49:56.786Z,59.22
2022-10-07T12:50:56.753Z,59.62
2022-10-07T12:51:57.051Z,59.22
2022-10-07T12:52:56.744Z,59.59
2022-10-07T12:53:56.744Z,59.69
2022-10-07T12:54:56.711Z,59.39